createdAt,value
2018-06-16T00:01:32.984Z,19.20
2018-06-16T00:04:07.677Z,19.20
2018-06-16T00:06:42.600Z,19.20
2018-06-16T00:09:17.741Z,19.20
2018-06-16T00:11:52.547Z,19.20
2018-06-16T00:14:27.396Z,19.20
2018-06-16T00:17:02.144Z,19.20
2018-06-16T00:19:38.111Z,19.30
2018-06-16T00:24:41.993Z,19.30
2018-06-16T00:27:16.966Z,19.20
2018-06-16T00:29:51.810Z,19.20
2018-06-16T00:35:01.772Z,19.20
2018-06-16T00:37:36.542Z,19.30
2018-06-16T00:40:11.512Z,19.20
2018-06-16T00:42:46.487Z,19.20
2018-06-16T00:45:21.487Z,19.10
2018-06-16T00:47:56.427Z,19.10
2018-06-16T00:50:31.556Z,19.00
2018-06-16T00:53:06.410Z,19.00
2018-06-16T00:55:41.356Z,18.90
2018-06-16T00:58:16.673Z,18.90
2018-06-16T01:00:51.919Z,19.00
2018-06-16T01:03:26.753Z,19.00
2018-06-16T01:06:01.771Z,19.00
2018-06-16T01:08:36.703Z,19.00
2018-06-16T01:11:11.479Z,19.00
2018-06-16T01:13:46.224Z,19.00
2018-06-16T01:16:21.269Z,19.00
2018-06-16T01:18:56.444Z,19.00
2018-06-16T01:21:31.296Z,19.10
2018-06-16T01:24:06.206Z,19.10
2018-06-16T01:26:41.347Z,19.00
2018-06-16T01:29:16.318Z,19.00
2018-06-16T01:31:51.099Z,18.90
2018-06-16T01:34:26.015Z,18.90
2018-06-16T01:37:00.913Z,18.90
2018-06-16T01:39:35.579Z,18.90
2018-06-16T01:42:10.479Z,18.80
2018-06-16T01:44:45.434Z,18.80
2018-06-16T01:47:20.201Z,18.70
2018-06-16T01:49:55.176Z,18.70
2018-06-16T01:52:29.847Z,18.70
2018-06-16T01:57:39.280Z,18.70
2018-06-16T02:00:13.966Z,18.60
2018-06-16T02:02:48.867Z,18.60
2018-06-16T02:05:23.769Z,18.60
2018-06-16T02:07:58.704Z,18.60
2018-06-16T02:10:33.554Z,18.60
2018-06-16T02:13:08.491Z,18.60
2018-06-16T02:15:43.399Z,18.60
2018-06-16T02:18:18.330Z,18.60
2018-06-16T02:20:53.283Z,18.50
2018-06-16T02:23:28.203Z,18.50
2018-06-16T02:26:03.020Z,18.50
2018-06-16T02:28:37.741Z,18.40
2018-06-16T02:31:12.675Z,18.40
2018-06-16T02:33:47.433Z,18.30
2018-06-16T02:36:22.549Z,18.30
2018-06-16T02:38:57.683Z,18.20
2018-06-16T02:41:32.309Z,18.30
2018-06-16T02:44:07.049Z,18.20
2018-06-16T02:46:41.858Z,18.30
2018-06-16T02:49:16.947Z,18.20
2018-06-16T02:51:51.833Z,18.20
2018-06-16T02:54:26.708Z,18.20
2018-06-16T02:57:01.553Z,18.20
2018-06-16T02:59:36.369Z,18.20
2018-06-16T03:02:11.422Z,18.20
2018-06-16T03:04:46.261Z,18.20
2018-06-16T03:07:21.182Z,18.20
2018-06-16T03:09:56.268Z,18.10
2018-06-16T03:12:31.124Z,18.10
2018-06-16T03:15:06.419Z,18.10
2018-06-16T03:17:41.644Z,18.20
2018-06-16T03:20:16.589Z,18.20
2018-06-16T03:22:51.515Z,18.20
2018-06-16T03:25:26.220Z,18.10
2018-06-16T03:28:01.331Z,18.10
2018-06-16T03:30:36.168Z,18.10
2018-06-16T03:33:11.137Z,18.10
2018-06-16T03:35:46.143Z,18.10
2018-06-16T03:38:20.937Z,18.10
2018-06-16T03:40:55.844Z,18.10
2018-06-16T03:43:30.718Z,18.10
2018-06-16T03:46:05.762Z,18.10
2018-06-16T03:48:40.546Z,18.10
2018-06-16T03:51:15.446Z,18.20
2018-06-16T03:53:50.528Z,18.10
2018-06-16T03:56:25.510Z,18.10
2018-06-16T03:59:00.690Z,18.20
2018-06-16T04:01:35.647Z,18.10
2018-06-16T04:06:45.292Z,18.20
2018-06-16T04:09:20.278Z,18.20
2018-06-16T04:11:55.365Z,18.30
2018-06-16T04:14:30.689Z,18.30
2018-06-16T04:17:10.385Z,18.40
2018-06-16T04:19:45.448Z,18.40
2018-06-16T04:22:21.118Z,18.50
2018-06-16T04:24:55.960Z,18.50
2018-06-16T04:27:30.966Z,18.50
2018-06-16T04:30:06.055Z,18.50
2018-06-16T04:32:40.984Z,18.50
2018-06-16T04:35:15.879Z,18.50
2018-06-16T04:37:50.699Z,18.60
2018-06-16T04:40:26.210Z,18.50
2018-06-16T04:43:01.471Z,18.50
2018-06-16T04:45:37.460Z,18.50
2018-06-16T04:48:13.164Z,18.50
2018-06-16T04:50:48.344Z,18.50
2018-06-16T04:53:23.959Z,18.60
2018-06-16T04:55:58.791Z,18.50
2018-06-16T04:58:33.647Z,18.60
2018-06-16T05:01:08.527Z,18.60
2018-06-16T05:03:43.597Z,18.60
2018-06-16T05:06:18.473Z,18.50
2018-06-16T05:08:53.404Z,18.50
2018-06-16T05:11:28.622Z,18.60
2018-06-16T05:14:03.740Z,18.60
2018-06-16T05:16:38.959Z,18.70
2018-06-16T05:19:13.916Z,18.70
2018-06-16T05:24:24.044Z,18.80
2018-06-16T05:26:58.968Z,18.80
2018-06-16T05:29:34.188Z,18.80
2018-06-16T05:32:09.437Z,18.70
2018-06-16T05:34:44.572Z,18.80
2018-06-16T05:37:19.484Z,18.70
2018-06-16T05:39:55.094Z,18.80
2018-06-16T05:42:29.976Z,18.80
2018-06-16T05:45:05.346Z,18.80
2018-06-16T05:47:40.530Z,18.90
2018-06-16T05:50:21.938Z,19.00
2018-06-16T05:52:57.145Z,19.20
2018-06-16T05:55:32.717Z,19.20
2018-06-16T05:58:08.121Z,19.40
2018-06-16T06:00:43.373Z,19.20
2018-06-16T06:03:18.769Z,19.30
2018-06-16T06:05:53.821Z,19.30
2018-06-16T06:08:29.657Z,19.40
2018-06-16T06:11:05.046Z,19.50
2018-06-16T06:13:40.206Z,19.40
2018-06-16T06:16:15.383Z,19.00
2018-06-16T06:18:51.067Z,19.10
2018-06-16T06:21:26.058Z,19.20
2018-06-16T06:24:01.264Z,19.30
2018-06-16T06:26:36.692Z,19.30
2018-06-16T06:29:11.421Z,19.40
2018-06-16T06:31:46.455Z,19.00
2018-06-16T06:34:21.843Z,19.20
2018-06-16T06:36:56.935Z,19.30
2018-06-16T06:39:31.969Z,19.40
2018-06-16T06:42:07.242Z,19.30
2018-06-16T06:44:44.222Z,19.40
2018-06-16T06:47:19.233Z,19.50
2018-06-16T06:49:54.854Z,19.50
2018-06-16T06:52:31.327Z,19.60
2018-06-16T06:55:06.603Z,19.60
2018-06-16T06:57:42.052Z,19.60
2018-06-16T07:00:17.471Z,19.60
2018-06-16T07:02:52.757Z,19.40
2018-06-16T07:05:28.670Z,19.40
2018-06-16T07:08:12.682Z,19.40
2018-06-16T07:10:48.253Z,19.70
2018-06-16T07:13:23.840Z,19.80
2018-06-16T07:16:00.411Z,19.90
2018-06-16T07:18:35.764Z,20.10
2018-06-16T07:21:11.148Z,20.30
2018-06-16T07:23:46.597Z,20.10
2018-06-16T07:26:23.125Z,20.20
2018-06-16T07:29:01.067Z,20.40
2018-06-16T07:31:37.091Z,20.30
2018-06-16T07:34:12.380Z,20.40
2018-06-16T07:36:47.739Z,20.70
2018-06-16T07:39:22.589Z,20.60
2018-06-16T07:41:57.737Z,20.40
2018-06-16T07:44:32.916Z,20.60
2018-06-16T07:47:07.896Z,20.60
2018-06-16T07:49:43.136Z,20.60
2018-06-16T07:52:18.317Z,20.50
2018-06-16T07:54:53.277Z,20.80
2018-06-16T07:57:28.357Z,21.00
2018-06-16T08:00:03.392Z,21.00
2018-06-16T08:02:38.976Z,21.20
2018-06-16T08:05:14.140Z,21.40
2018-06-16T08:07:49.210Z,21.40
2018-06-16T08:10:24.017Z,21.00
2018-06-16T08:12:58.797Z,21.00
2018-06-16T08:15:33.865Z,21.10
2018-06-16T08:18:08.980Z,21.10
2018-06-16T08:20:44.029Z,21.30
2018-06-16T08:23:19.080Z,21.40
2018-06-16T08:25:54.452Z,21.50
2018-06-16T08:28:29.736Z,21.60
2018-06-16T08:31:04.686Z,21.60
2018-06-16T08:33:39.661Z,21.80
2018-06-16T08:36:14.673Z,21.90
2018-06-16T08:38:49.874Z,21.90
2018-06-16T08:41:24.847Z,21.90
2018-06-16T08:44:00.169Z,21.90
2018-06-16T08:46:35.171Z,21.60
2018-06-16T08:49:10.136Z,21.60
2018-06-16T08:51:45.105Z,21.70
2018-06-16T08:54:20.350Z,21.90
2018-06-16T08:56:55.745Z,22.00
2018-06-16T08:59:30.785Z,22.20
2018-06-16T09:02:05.908Z,22.10
2018-06-16T09:04:40.831Z,22.40
2018-06-16T09:07:15.735Z,22.50
2018-06-16T09:09:51.248Z,22.70
2018-06-16T09:12:26.306Z,22.80
2018-06-16T09:15:01.452Z,22.90
2018-06-16T09:17:36.351Z,22.90
2018-06-16T09:20:11.598Z,23.00
2018-06-16T09:22:46.494Z,23.10
2018-06-16T09:25:21.682Z,23.10
2018-06-16T09:27:56.523Z,23.00
2018-06-16T09:30:31.919Z,22.60
2018-06-16T09:33:07.327Z,22.40
2018-06-16T09:35:42.264Z,22.60
2018-06-16T09:38:17.413Z,22.80
2018-06-16T09:40:52.270Z,22.80
2018-06-16T09:43:27.655Z,22.70
2018-06-16T09:46:02.611Z,22.60
2018-06-16T09:48:37.530Z,22.70
2018-06-16T09:51:12.580Z,22.80
2018-06-16T09:53:47.531Z,23.00
2018-06-16T09:56:22.688Z,23.10
2018-06-16T09:58:57.563Z,23.00
2018-06-16T10:01:32.967Z,23.00
2018-06-16T10:04:08.278Z,23.00
2018-06-16T10:06:43.555Z,23.30
2018-06-16T10:09:18.687Z,23.40
2018-06-16T10:11:53.958Z,23.50
2018-06-16T10:14:29.051Z,23.70
2018-06-16T10:17:03.911Z,23.80
2018-06-16T10:19:39.283Z,23.90
2018-06-16T10:22:14.039Z,23.80
2018-06-16T10:24:49.044Z,23.70
2018-06-16T10:27:24.459Z,23.60
2018-06-16T10:29:59.364Z,23.40
2018-06-16T10:32:34.259Z,23.40
2018-06-16T10:35:09.078Z,23.50
2018-06-16T10:42:54.942Z,24.00
2018-06-16T10:45:30.063Z,24.00
2018-06-16T10:48:05.170Z,24.20
2018-06-16T10:50:40.205Z,24.30
2018-06-16T10:53:15.382Z,24.50
2018-06-16T10:55:50.346Z,24.50
2018-06-16T10:58:25.404Z,24.60
2018-06-16T11:01:00.137Z,24.30
2018-06-16T11:03:35.156Z,24.30
2018-06-16T11:06:10.147Z,24.40
2018-06-16T11:08:44.990Z,24.50
2018-06-16T11:11:19.895Z,24.80
2018-06-16T11:13:55.227Z,24.90
2018-06-16T11:16:30.297Z,24.70
2018-06-16T11:19:05.995Z,24.90
2018-06-16T11:21:40.922Z,25.10
2018-06-16T11:24:15.908Z,25.20
2018-06-16T11:26:52.099Z,25.00
2018-06-16T11:29:27.250Z,25.30
2018-06-16T11:32:02.327Z,25.40
2018-06-16T11:34:37.570Z,25.70
2018-06-16T11:37:12.575Z,25.70
2018-06-16T11:39:47.846Z,26.00
2018-06-16T11:42:22.714Z,26.00
2018-06-16T11:44:57.556Z,26.00
2018-06-16T11:47:33.055Z,25.50
2018-06-16T11:50:08.548Z,24.90
2018-06-16T11:52:43.526Z,24.70
2018-06-16T11:55:18.554Z,24.30
2018-06-16T11:57:53.511Z,24.00
2018-06-16T12:00:28.499Z,23.80
2018-06-16T12:03:03.377Z,23.60
2018-06-16T12:08:13.548Z,23.30
2018-06-16T12:10:48.853Z,23.10
2018-06-16T12:13:30.494Z,23.10
2018-06-16T12:16:05.575Z,22.80
2018-06-16T12:18:40.564Z,22.70
2018-06-16T12:21:15.320Z,22.90
2018-06-16T12:23:50.530Z,23.00
2018-06-16T12:26:25.720Z,23.40
2018-06-16T12:29:00.813Z,23.70
2018-06-16T12:31:36.102Z,23.80
2018-06-16T12:36:45.674Z,23.70
2018-06-16T12:39:21.055Z,23.80
2018-06-16T12:41:56.082Z,23.80
2018-06-16T12:44:31.043Z,23.90
2018-06-16T12:47:06.098Z,23.90
2018-06-16T12:49:41.132Z,24.10
2018-06-16T12:52:16.275Z,23.80
2018-06-16T12:54:51.399Z,23.80
2018-06-16T12:57:26.375Z,23.90
2018-06-16T13:00:01.668Z,24.10
2018-06-16T13:02:36.592Z,24.10
2018-06-16T13:05:12.249Z,24.20
2018-06-16T13:07:47.246Z,24.50
2018-06-16T13:10:22.296Z,24.70
2018-06-16T13:12:57.985Z,24.70
2018-06-16T13:15:33.108Z,24.90
2018-06-16T13:18:07.936Z,25.10
2018-06-16T13:23:17.833Z,25.40
2018-06-16T13:25:52.733Z,25.60
2018-06-16T13:28:28.030Z,25.50
2018-06-16T13:31:02.966Z,25.40
2018-06-16T13:33:37.891Z,25.50
2018-06-16T13:36:13.339Z,25.80
2018-06-16T13:38:48.208Z,26.00
2018-06-16T13:41:23.882Z,26.10
2018-06-16T13:43:59.374Z,26.10
2018-06-16T13:46:34.537Z,26.20
2018-06-16T13:49:09.499Z,26.40
2018-06-16T13:54:19.347Z,26.30
2018-06-16T13:56:54.439Z,26.00
2018-06-16T13:59:29.316Z,26.10
2018-06-16T14:02:04.196Z,26.30
2018-06-16T14:04:39.420Z,26.50
2018-06-16T14:07:14.194Z,26.50
2018-06-16T14:09:49.454Z,26.80
2018-06-16T14:12:24.529Z,27.00
2018-06-16T14:14:59.479Z,26.90
2018-06-16T14:17:34.596Z,26.60
2018-06-16T14:20:10.056Z,26.70
2018-06-16T14:22:45.234Z,26.90
2018-06-16T14:25:20.024Z,26.60
2018-06-16T14:27:55.400Z,26.70
2018-06-16T14:30:30.788Z,26.80
2018-06-16T14:33:05.963Z,27.00
2018-06-16T14:35:41.021Z,27.40
2018-06-16T14:38:16.134Z,27.40
2018-06-16T14:40:51.044Z,27.60
2018-06-16T14:43:26.104Z,27.90
2018-06-16T14:46:01.275Z,28.10
2018-06-16T14:48:36.168Z,27.70
2018-06-16T14:51:11.152Z,27.60
2018-06-16T14:53:46.305Z,27.50
2018-06-16T14:56:22.122Z,27.50
2018-06-16T14:58:57.160Z,27.60
2018-06-16T15:01:32.163Z,27.30
2018-06-16T15:04:07.024Z,27.50
2018-06-16T15:06:42.177Z,26.90
2018-06-16T15:09:17.193Z,26.60
2018-06-16T15:14:26.786Z,26.10
2018-06-16T15:17:01.799Z,25.90
2018-06-16T15:19:37.014Z,25.90
2018-06-16T15:22:12.108Z,26.00
2018-06-16T15:24:47.075Z,26.00
2018-06-16T15:27:21.892Z,26.00
2018-06-16T15:29:57.375Z,25.90
2018-06-16T15:32:32.388Z,25.80
2018-06-16T15:35:07.176Z,25.20
2018-06-16T15:37:42.161Z,24.80
2018-06-16T15:40:17.139Z,25.00
2018-06-16T15:42:52.121Z,24.80
2018-06-16T15:45:27.822Z,25.00
2018-06-16T15:48:03.787Z,25.10
2018-06-16T15:50:38.773Z,25.00
2018-06-16T15:53:13.712Z,25.00
2018-06-16T15:55:48.476Z,24.90
2018-06-16T15:58:23.358Z,24.70
2018-06-16T16:00:58.349Z,24.60
2018-06-16T16:03:33.823Z,24.40
2018-06-16T16:06:08.493Z,24.20
2018-06-16T16:08:43.390Z,24.00
2018-06-16T16:11:18.216Z,23.50
2018-06-16T16:13:53.470Z,21.70
2018-06-16T16:16:28.369Z,20.90
2018-06-16T16:19:03.562Z,20.40
2018-06-16T16:21:39.510Z,20.20
2018-06-16T16:24:14.668Z,20.20
2018-06-16T16:26:50.062Z,20.20
2018-06-16T16:29:24.960Z,20.10
2018-06-16T16:32:00.099Z,19.80
2018-06-16T16:34:35.472Z,19.80
2018-06-16T16:37:10.477Z,19.90
2018-06-16T16:39:45.318Z,20.10
2018-06-16T16:42:20.043Z,20.20
2018-06-16T16:44:55.063Z,20.40
2018-06-16T16:47:30.053Z,20.50
2018-06-16T16:50:05.456Z,20.50
2018-06-16T16:52:40.237Z,20.60
2018-06-16T16:55:15.168Z,20.60
2018-06-16T17:00:24.889Z,20.70
2018-06-16T17:02:59.880Z,20.80
2018-06-16T17:05:34.798Z,20.80
2018-06-16T17:08:09.774Z,20.70
2018-06-16T17:10:44.521Z,20.70
2018-06-16T17:13:19.461Z,20.70
2018-06-16T17:15:54.352Z,20.70
2018-06-16T17:18:29.403Z,20.70
2018-06-16T17:21:04.703Z,20.70
2018-06-16T17:23:41.128Z,20.70
2018-06-16T17:26:16.632Z,20.80
2018-06-16T17:28:51.604Z,20.80
2018-06-16T17:31:27.015Z,21.00
2018-06-16T17:34:02.035Z,21.00
2018-06-16T17:36:37.208Z,20.90
2018-06-16T17:39:15.122Z,20.90
2018-06-16T17:41:50.670Z,20.90
2018-06-16T17:44:26.334Z,21.00
2018-06-16T17:47:03.016Z,20.90
2018-06-16T17:49:38.392Z,21.00
2018-06-16T17:52:13.366Z,21.00
2018-06-16T17:54:48.953Z,20.90
2018-06-16T17:57:24.318Z,20.80
2018-06-16T18:00:00.670Z,20.80
2018-06-16T18:02:35.749Z,20.70
2018-06-16T18:05:12.134Z,20.70
2018-06-16T18:07:48.785Z,20.60
2018-06-16T18:10:24.458Z,20.60
2018-06-16T18:13:00.458Z,20.50
2018-06-16T18:15:36.710Z,20.50
2018-06-16T18:18:12.547Z,20.50
2018-06-16T18:20:47.891Z,20.50
2018-06-16T18:23:23.246Z,20.50
2018-06-16T18:28:33.843Z,20.30
2018-06-16T18:31:09.064Z,20.30
2018-06-16T18:36:26.484Z,20.40
2018-06-16T18:39:02.098Z,20.40
2018-06-16T18:41:38.227Z,20.40
2018-06-16T18:44:14.061Z,20.40
2018-06-16T18:46:49.066Z,20.50
2018-06-16T18:49:24.564Z,20.40
2018-06-16T18:52:03.212Z,20.40
2018-06-16T18:54:39.922Z,20.50
2018-06-16T18:57:16.659Z,20.50
2018-06-16T18:59:52.037Z,20.50
2018-06-16T19:02:27.144Z,20.50
2018-06-16T19:05:02.965Z,20.50
2018-06-16T19:07:38.386Z,20.40
2018-06-16T19:10:23.898Z,20.40
2018-06-16T19:13:00.499Z,20.40
2018-06-16T19:15:36.059Z,20.40
2018-06-16T19:18:11.647Z,20.40
2018-06-16T19:20:47.386Z,20.30
2018-06-16T19:23:23.575Z,20.30
2018-06-16T19:25:59.471Z,20.30
2018-06-16T19:28:34.967Z,20.30
2018-06-16T19:33:46.613Z,20.20
2018-06-16T19:36:23.650Z,20.20
2018-06-16T19:38:59.673Z,20.20
2018-06-16T19:41:37.835Z,20.20
2018-06-16T19:44:13.734Z,20.10
2018-06-16T19:46:48.625Z,20.10
2018-06-16T19:49:24.497Z,20.10
2018-06-16T19:52:00.577Z,20.10
2018-06-16T19:54:35.459Z,20.10
2018-06-16T19:59:46.248Z,20.00
2018-06-16T20:02:21.659Z,19.90
2018-06-16T20:04:56.889Z,19.90
2018-06-16T20:07:32.262Z,19.80
2018-06-16T20:10:07.121Z,19.70
2018-06-16T20:12:42.136Z,19.70
2018-06-16T20:17:51.720Z,19.70
2018-06-16T20:20:26.785Z,19.70
2018-06-16T20:23:02.025Z,19.80
2018-06-16T20:25:37.097Z,19.70
2018-06-16T20:28:12.106Z,19.80
2018-06-16T20:30:47.140Z,19.80
2018-06-16T20:33:22.696Z,19.80
2018-06-16T20:35:59.418Z,19.80
2018-06-16T20:38:34.536Z,19.80
2018-06-16T20:41:09.885Z,19.60
2018-06-16T20:43:45.179Z,19.60
2018-06-16T20:46:20.413Z,19.50
2018-06-16T20:48:55.434Z,19.50
2018-06-16T20:51:30.567Z,19.50
2018-06-16T20:54:05.677Z,19.40
2018-06-16T20:56:40.762Z,19.40
2018-06-16T20:59:16.028Z,19.30
2018-06-16T21:01:50.708Z,19.30
2018-06-16T21:04:25.693Z,19.30
2018-06-16T21:07:01.084Z,19.30
2018-06-16T21:09:35.936Z,19.20
2018-06-16T21:12:10.959Z,19.10
2018-06-16T21:14:46.005Z,19.10
2018-06-16T21:19:55.874Z,19.00
2018-06-16T21:22:30.684Z,18.90
2018-06-16T21:25:05.972Z,18.80
2018-06-16T21:27:40.917Z,18.80
2018-06-16T21:30:16.113Z,18.70
2018-06-16T21:32:51.737Z,18.80
2018-06-16T21:35:27.302Z,18.70
2018-06-16T21:38:02.198Z,18.80
2018-06-16T21:40:37.520Z,18.70
2018-06-16T21:45:47.428Z,18.70
2018-06-16T21:48:22.467Z,18.70
2018-06-16T21:50:57.757Z,18.60
2018-06-16T21:53:32.604Z,18.60
2018-06-16T21:56:07.583Z,18.60
2018-06-16T21:58:42.994Z,18.60
2018-06-16T22:01:17.765Z,18.60
2018-06-16T22:03:53.871Z,18.50
2018-06-16T22:06:29.145Z,18.60
2018-06-16T22:09:06.739Z,18.60
2018-06-16T22:11:41.869Z,18.50
2018-06-16T22:16:51.905Z,18.40
2018-06-16T22:19:27.040Z,18.40
2018-06-16T22:22:01.907Z,18.40
2018-06-16T22:24:36.856Z,18.40
2018-06-16T22:27:11.860Z,18.40
2018-06-16T22:29:46.816Z,18.40
2018-06-16T22:32:22.407Z,18.40
2018-06-16T22:34:57.214Z,18.40
2018-06-16T22:37:32.247Z,18.40
2018-06-16T22:40:07.542Z,18.30
2018-06-16T22:42:42.593Z,18.20
2018-06-16T22:45:17.777Z,18.20
2018-06-16T22:47:52.571Z,18.20
2018-06-16T22:50:27.604Z,18.10
2018-06-16T22:53:02.628Z,18.10
2018-06-16T22:55:37.678Z,18.10
2018-06-16T22:58:12.868Z,18.00
2018-06-16T23:00:48.133Z,18.10
2018-06-16T23:03:23.085Z,18.10
2018-06-16T23:05:58.215Z,18.00
2018-06-16T23:08:33.368Z,18.00
2018-06-16T23:11:08.524Z,18.00
2018-06-16T23:13:43.546Z,18.00
2018-06-16T23:18:53.474Z,17.90
2018-06-16T23:21:28.304Z,17.90
2018-06-16T23:24:03.487Z,17.90
2018-06-16T23:26:38.501Z,17.90
2018-06-16T23:29:13.268Z,17.90
2018-06-16T23:31:48.195Z,17.80
2018-06-16T23:34:22.933Z,17.80
2018-06-16T23:36:57.807Z,17.80
2018-06-16T23:39:32.608Z,17.80
2018-06-16T23:42:07.543Z,17.70
2018-06-16T23:44:42.562Z,17.70
2018-06-16T23:47:17.402Z,17.70
2018-06-16T23:49:52.646Z,17.60
2018-06-16T23:52:27.689Z,17.60
2018-06-16T23:55:02.464Z,17.50
2018-06-16T23:57:37.368Z,17.50
